Time;durP1;ratioP1;P1;durP2;ratioP2;P2;SDS_P1;SDS_P2;PMS_P1;PMS_P2;Temp;Humidity;BMP_temperature;BMP_pressure;BME280_temperature;BME280_humidity;BME280_pressure;Samples;Min_cycle;Max_cycle;Signal;HPM_P1;HPM_P2
2021/10/26 00:02:10;;;;;;;14.47;7.40;;;8.00;99.90;;;;;;5058359;28;20448;-53
2021/10/26 00:04:38;;;;;;;10.50;6.60;;;7.90;99.90;;;;;;5057968;28;20429;-45
2021/10/26 00:07:05;;;;;;;12.47;6.97;;;8.00;99.90;;;;;;5058459;28;20476;-46
2021/10/26 00:09:32;;;;;;;11.67;6.80;;;8.00;99.90;;;;;;5057807;28;20494;-44
2021/10/26 00:12:00;;;;;;;11.07;7.00;;;8.00;99.90;;;;;;5057926;28;20464;-46
2021/10/26 00:14:26;;;;;;;12.40;7.60;;;8.00;99.90;;;;;;5057497;28;20523;-44
2021/10/26 00:16:54;;;;;;;11.70;7.10;;;7.90;99.90;;;;;;5057757;28;20431;-45
2021/10/26 00:19:21;;;;;;;10.80;7.03;;;7.90;99.90;;;;;;5057155;28;20448;-45
2021/10/26 00:21:49;;;;;;;14.97;6.80;;;7.90;99.90;;;;;;5057562;28;20440;-44
2021/10/26 00:24:16;;;;;;;12.40;7.87;;;7.90;99.90;;;;;;5057484;28;20479;-45
2021/10/26 00:26:44;;;;;;;12.57;7.57;;;8.00;99.90;;;;;;5057238;28;20486;-41
2021/10/26 00:29:11;;;;;;;13.43;7.37;;;7.90;99.90;;;;;;5057569;28;20429;-45
2021/10/26 00:31:38;;;;;;;8.73;6.57;;;8.00;99.90;;;;;;5057899;28;20492;-45
2021/10/26 00:34:06;;;;;;;9.50;6.93;;;8.00;99.90;;;;;;5057755;28;20483;-45
2021/10/26 00:36:33;;;;;;;11.00;7.30;;;8.00;99.90;;;;;;5057361;28;20451;-45
2021/10/26 00:39:05;;;;;;;13.83;8.20;;;8.00;99.90;;;;;;5058022;28;20478;-49
2021/10/26 00:41:33;;;;;;;17.23;8.47;;;8.10;99.90;;;;;;5058018;28;20428;-42
2021/10/26 00:44:02;;;;;;;10.37;5.70;;;8.20;99.90;;;;;;5057535;28;20483;-53
2021/10/26 00:46:31;;;;;;;14.37;7.20;;;8.10;99.90;;;;;;5057280;28;20476;-45
2021/10/26 00:48:59;;;;;;;8.10;6.37;;;8.10;99.90;;;;;;5057361;28;20463;-41
2021/10/26 00:51:26;;;;;;;9.93;6.30;;;8.10;99.90;;;;;;5057250;28;20467;-45
2021/10/26 00:53:53;;;;;;;11.30;7.20;;;8.10;99.90;;;;;;5057129;28;20432;-57
2021/10/26 00:56:27;;;;;;;9.90;5.73;;;8.10;99.90;;;;;;5057356;28;20421;-46
2021/10/26 00:58:54;;;;;;;9.10;5.77;;;8.10;99.90;;;;;;5057042;28;20508;-43
2021/10/26 01:01:20;;;;;;;8.37;5.90;;;8.10;99.90;;;;;;5056775;28;20428;-41
2021/10/26 01:03:47;;;;;;;8.77;6.17;;;8.20;99.90;;;;;;5056503;28;20460;-46
2021/10/26 01:06:14;;;;;;;8.57;6.20;;;8.10;99.90;;;;;;5056394;28;20531;-43
2021/10/26 01:08:41;;;;;;;10.90;6.17;;;8.20;99.90;;;;;;5056541;28;20463;-44
2021/10/26 01:11:11;;;;;;;11.40;6.57;;;8.20;99.90;;;;;;5056626;28;20555;-42
2021/10/26 01:13:40;;;;;;;22.20;6.80;;;8.20;99.90;;;;;;5056284;28;20424;-44
2021/10/26 01:16:06;;;;;;;10.10;6.70;;;8.20;99.90;;;;;;5056266;28;20455;-41
2021/10/26 01:18:33;;;;;;;10.33;7.00;;;8.20;99.90;;;;;;5056898;28;20448;-45
2021/10/26 01:21:02;;;;;;;13.93;7.40;;;8.20;99.90;;;;;;5056804;28;20440;-42
2021/10/26 01:23:29;;;;;;;9.10;6.87;;;8.20;99.90;;;;;;5056191;28;20495;-44
2021/10/26 01:25:55;;;;;;;7.07;5.37;;;8.20;99.90;;;;;;5057098;28;20448;-45
2021/10/26 01:28:23;;;;;;;8.37;5.37;;;8.20;99.90;;;;;;5057161;28;20456;-49
2021/10/26 01:30:50;;;;;;;9.83;7.10;;;8.20;99.90;;;;;;5056830;28;20440;-41
2021/10/26 01:33:17;;;;;;;9.27;6.03;;;8.20;99.90;;;;;;5056616;28;20448;-46
2021/10/26 01:35:43;;;;;;;7.97;5.87;;;8.30;99.90;;;;;;5056930;28;20428;-46
2021/10/26 01:38:12;;;;;;;9.13;5.40;;;8.30;99.90;;;;;;5056162;28;20440;-43
2021/10/26 01:40:38;;;;;;;8.93;6.23;;;8.30;99.90;;;;;;5056285;28;20452;-43
2021/10/26 01:43:06;;;;;;;13.60;7.20;;;8.30;99.90;;;;;;5056664;28;20432;-45
2021/10/26 01:45:33;;;;;;;6.93;5.17;;;8.30;99.90;;;;;;5055549;28;20499;-44
2021/10/26 01:48:01;;;;;;;10.90;6.13;;;8.40;99.90;;;;;;5056160;28;20484;-42
2021/10/26 01:50:28;;;;;;;12.13;5.73;;;8.30;99.90;;;;;;5055919;28;20424;-47
2021/10/26 01:52:56;;;;;;;8.57;5.93;;;8.40;99.90;;;;;;5056689;28;20879;-48
2021/10/26 01:55:24;;;;;;;9.33;5.57;;;8.40;99.90;;;;;;5055904;28;20455;-42
2021/10/26 01:57:54;;;;;;;14.40;6.50;;;8.40;99.90;;;;;;5057107;28;20475;-52
2021/10/26 02:00:23;;;;;;;8.10;6.20;;;8.40;99.90;;;;;;5056415;28;20515;-46
2021/10/26 02:02:51;;;;;;;8.97;5.70;;;8.30;99.90;;;;;;5055969;28;20448;-46
2021/10/26 02:05:18;;;;;;;10.27;5.97;;;8.30;99.90;;;;;;5055995;28;20452;-43
2021/10/26 02:07:46;;;;;;;13.97;7.60;;;8.40;99.90;;;;;;5055711;28;20498;-46
2021/10/26 02:10:13;;;;;;;10.47;7.30;;;8.40;99.90;;;;;;5055851;28;20456;-42
2021/10/26 02:12:41;;;;;;;14.73;6.03;;;8.40;99.90;;;;;;5056083;28;20451;-48
2021/10/26 02:15:09;;;;;;;9.07;6.73;;;8.40;99.90;;;;;;5055933;28;20439;-40
2021/10/26 02:17:35;;;;;;;15.13;6.50;;;8.30;99.90;;;;;;5055913;28;20424;-45
2021/10/26 02:20:02;;;;;;;19.43;6.53;;;8.30;99.90;;;;;;5092537;22;20486;-50
2021/10/26 02:22:29;;;;;;;11.93;7.30;;;8.30;99.90;;;;;;5076334;28;20474;-44
2021/10/26 02:25:05;;;;;;;11.30;6.03;;;8.40;99.90;;;;;;5126386;22;20521;-47
2021/10/26 02:27:32;;;;;;;8.97;5.43;;;8.30;99.90;;;;;;5099835;28;20475;-45
2021/10/26 02:30:00;;;;;;;14.00;6.70;;;8.30;99.90;;;;;;5106417;22;20526;-45
2021/10/26 02:32:27;;;;;;;10.40;6.50;;;8.30;99.90;;;;;;5059525;28;20432;-45
2021/10/26 02:34:54;;;;;;;9.07;5.27;;;8.30;99.90;;;;;;5089726;22;20490;-42
2021/10/26 02:37:20;;;;;;;8.97;6.07;;;8.30;99.90;;;;;;5079190;28;20451;-46
2021/10/26 02:39:48;;;;;;;9.13;5.20;;;8.30;99.90;;;;;;5086873;22;20482;-43
2021/10/26 02:42:15;;;;;;;9.10;5.90;;;8.30;99.90;;;;;;5079684;28;20479;-45
2021/10/26 02:44:43;;;;;;;14.80;6.80;;;8.20;99.90;;;;;;5087213;22;20451;-42
2021/10/26 02:47:11;;;;;;;9.00;6.57;;;8.20;99.90;;;;;;5058972;28;20495;-43
2021/10/26 02:52:09;;;;;;;17.23;6.30;;;8.10;99.90;;;;;;5116602;22;20475;-48
2021/10/26 02:54:35;;;;;;;8.70;6.17;;;8.10;99.90;;;;;;5079414;28;20916;-45
2021/10/26 02:57:02;;;;;;;9.80;6.27;;;8.00;99.90;;;;;;5103772;22;20485;-43
2021/10/26 02:59:29;;;;;;;10.40;6.60;;;8.00;99.90;;;;;;5100026;28;20465;-49
2021/10/26 03:01:57;;;;;;;9.73;5.43;;;7.90;99.90;;;;;;5106170;22;20486;-48
2021/10/26 03:04:25;;;;;;;7.13;5.30;;;7.90;99.90;;;;;;5079164;28;20519;-45
2021/10/26 03:07:00;;;;;;;11.60;6.40;;;8.00;99.90;;;;;;5122530;22;20466;-44
2021/10/26 03:09:27;;;;;;;10.50;7.10;;;8.00;99.90;;;;;;5098703;28;20483;-43
2021/10/26 03:11:53;;;;;;;8.13;5.87;;;8.00;99.90;;;;;;5101398;22;20509;-46
2021/10/26 03:14:20;;;;;;;10.00;5.73;;;8.00;99.90;;;;;;5078750;28;20412;-48
2021/10/26 03:16:47;;;;;;;17.00;6.03;;;8.00;99.90;;;;;;5086254;22;20451;-41
2021/10/26 03:19:15;;;;;;;10.87;6.40;;;8.00;99.90;;;;;;5078436;28;20428;-43
2021/10/26 03:24:19;;;;;;;10.00;5.60;;;8.00;99.90;;;;;;5096148;22;20546;-40
2021/10/26 03:26:46;;;;;;;12.03;6.20;;;8.00;99.90;;;;;;5059074;28;20422;-43
2021/10/26 03:29:15;;;;;;;11.03;6.67;;;7.90;99.90;;;;;;5099788;22;20459;-45
2021/10/26 03:31:42;;;;;;;12.67;7.23;;;8.00;99.90;;;;;;5079369;28;20467;-44
2021/10/26 03:34:09;;;;;;;11.40;7.23;;;7.90;99.90;;;;;;5085943;22;20487;-46
2021/10/26 03:36:41;;;;;;;8.87;6.30;;;8.00;99.90;;;;;;5077475;28;20455;-42
2021/10/26 03:39:09;;;;;;;12.73;5.57;;;8.00;99.90;;;;;;5085611;22;20510;-46
2021/10/26 03:41:37;;;;;;;7.20;5.03;;;8.00;99.90;;;;;;5078149;28;20847;-43
2021/10/26 03:44:06;;;;;;;8.60;5.07;;;8.00;99.90;;;;;;5073668;22;20484;-42
2021/10/26 03:46:34;;;;;;;8.87;5.83;;;8.10;99.90;;;;;;5057565;28;20436;-48
2021/10/26 03:49:05;;;;;;;10.70;7.30;;;8.10;99.90;;;;;;5092207;22;20510;-42
2021/10/26 03:51:33;;;;;;;8.70;6.13;;;8.10;99.90;;;;;;5078193;28;20927;-43
2021/10/26 03:54:02;;;;;;;7.10;5.37;;;8.10;99.90;;;;;;5085137;22;20457;-45
2021/10/26 03:56:29;;;;;;;16.97;5.97;;;8.20;99.90;;;;;;5077443;28;20431;-42
2021/10/26 03:58:59;;;;;;;11.73;5.80;;;8.20;99.90;;;;;;5132963;22;20552;-42
2021/10/26 04:01:26;;;;;;;13.37;6.20;;;8.20;99.90;;;;;;5077742;28;20490;-44
2021/10/26 04:03:53;;;;;;;8.80;6.97;;;8.20;99.90;;;;;;5101712;22;20475;-42
2021/10/26 04:06:24;;;;;;;8.80;5.13;;;8.20;99.90;;;;;;5078207;28;20477;-45
2021/10/26 04:08:55;;;;;;;10.03;5.70;;;8.20;99.90;;;;;;5085821;22;20459;-44
2021/10/26 04:11:23;;;;;;;10.27;6.23;;;8.20;99.90;;;;;;5077981;28;20966;-49
2021/10/26 04:16:17;;;;;;;9.63;5.90;;;8.30;99.90;;;;;;5082971;22;20479;-47
2021/10/26 04:18:45;;;;;;;11.50;6.07;;;8.40;99.90;;;;;;5077829;28;20239;-42
2021/10/26 04:21:12;;;;;;;6.87;5.13;;;8.40;99.90;;;;;;5103201;22;20481;-42
2021/10/26 04:23:39;;;;;;;11.00;6.83;;;8.40;99.90;;;;;;5097702;28;20481;-44
2021/10/26 04:26:08;;;;;;;8.77;7.50;;;8.40;99.90;;;;;;5090779;22;21126;-44
2021/10/26 04:28:36;;;;;;;11.93;5.97;;;8.50;99.90;;;;;;5057468;28;20479;-47
2021/10/26 04:31:05;;;;;;;12.67;6.43;;;8.50;99.90;;;;;;5078824;22;20549;-45
2021/10/26 04:33:34;;;;;;;10.17;5.07;;;8.60;99.90;;;;;;5077232;28;20470;-40
2021/10/26 04:36:00;;;;;;;13.27;5.83;;;8.60;99.90;;;;;;5116625;22;20498;-41
2021/10/26 04:38:27;;;;;;;8.57;6.27;;;8.60;99.90;;;;;;5077416;28;20419;-46
2021/10/26 04:40:57;;;;;;;10.40;6.30;;;8.70;99.90;;;;;;5084913;22;20474;-45
2021/10/26 04:43:25;;;;;;;13.70;6.80;;;8.70;99.90;;;;;;5078126;28;20452;-44
2021/10/26 04:45:53;;;;;;;9.50;5.67;;;8.70;99.90;;;;;;5085993;22;20463;-45
2021/10/26 04:48:22;;;;;;;11.00;7.03;;;8.80;99.90;;;;;;5075867;28;20491;-46
2021/10/26 04:50:50;;;;;;;9.13;6.20;;;8.70;99.90;;;;;;5084805;22;20475;-42
2021/10/26 04:53:16;;;;;;;11.80;6.00;;;8.80;99.90;;;;;;5076899;28;20432;-41
2021/10/26 04:55:43;;;;;;;18.40;6.10;;;8.80;99.90;;;;;;5100188;22;20438;-44
2021/10/26 04:58:10;;;;;;;9.73;5.53;;;8.90;99.90;;;;;;5076782;28;20427;-42
2021/10/26 05:03:05;;;;;;;9.10;6.30;;;9.00;99.90;;;;;;5063559;22;20483;-44
2021/10/26 05:05:31;;;;;;;10.43;5.47;;;9.00;99.90;;;;;;5057431;28;20458;-43
2021/10/26 05:08:00;;;;;;;11.07;6.03;;;8.90;99.90;;;;;;5065919;22;20491;-44
2021/10/26 05:10:27;;;;;;;8.43;6.47;;;9.00;99.90;;;;;;5058978;28;20467;-42
2021/10/26 05:12:54;;;;;;;8.50;5.77;;;9.00;99.90;;;;;;5065650;22;20760;-43
2021/10/26 05:15:21;;;;;;;10.60;6.80;;;9.00;99.90;;;;;;5058587;28;20443;-43
2021/10/26 05:17:49;;;;;;;12.13;5.63;;;9.00;99.90;;;;;;5068972;22;20487;-46
2021/10/26 05:20:18;;;;;;;9.03;5.83;;;9.00;99.90;;;;;;5059210;28;20511;-55
2021/10/26 05:22:44;;;;;;;9.53;6.20;;;9.10;99.90;;;;;;5069178;22;20515;-46
2021/10/26 05:25:12;;;;;;;11.43;5.20;;;9.00;99.90;;;;;;5058467;28;20475;-43
2021/10/26 05:27:39;;;;;;;8.80;6.30;;;9.10;99.90;;;;;;5064450;22;20483;-44
2021/10/26 05:30:07;;;;;;;7.60;5.90;;;9.10;99.90;;;;;;5056579;28;20471;-49
2021/10/26 05:32:34;;;;;;;8.47;6.33;;;9.20;99.90;;;;;;5069469;22;20491;-42
2021/10/26 05:35:01;;;;;;;11.73;6.00;;;9.30;99.90;;;;;;5059528;28;20455;-41
2021/10/26 05:37:28;;;;;;;9.70;4.93;;;9.30;99.90;;;;;;5066519;22;20479;-43
2021/10/26 05:39:55;;;;;;;9.50;6.50;;;9.50;99.90;;;;;;5059029;28;20443;-47
2021/10/26 05:42:26;;;;;;;7.57;6.10;;;9.50;99.90;;;;;;5075081;22;20495;31
2021/10/26 05:44:55;;;;;;;9.00;6.10;;;9.40;99.90;;;;;;5003074;28;20469;-44
2021/10/26 05:50:03;;;;;;;8.03;6.63;;;9.50;99.90;;;;;;5066252;22;20983;-47
2021/10/26 05:52:32;;;;;;;8.20;6.07;;;9.50;99.90;;;;;;5060961;28;20455;-45
2021/10/26 05:54:58;;;;;;;12.50;7.37;;;9.50;99.90;;;;;;5064887;22;20879;-42
2021/10/26 05:57:27;;;;;;;8.23;5.57;;;9.50;99.90;;;;;;5057606;28;20781;-46
2021/10/26 05:59:53;;;;;;;9.60;6.10;;;9.50;99.90;;;;;;5072247;22;20490;-42
2021/10/26 06:02:20;;;;;;;9.17;5.57;;;9.50;99.90;;;;;;5062031;28;20443;-43
2021/10/26 06:04:50;;;;;;;9.87;6.20;;;9.50;99.90;;;;;;5069850;22;20490;-45
2021/10/26 06:07:24;;;;;;;9.63;6.03;;;9.50;99.90;;;;;;5061971;28;20494;-45
2021/10/26 06:09:50;;;;;;;7.77;5.40;;;9.40;99.90;;;;;;5061997;28;20427;-48
2021/10/26 06:12:21;;;;;;;7.87;5.87;;;9.40;99.90;;;;;;5064774;28;20825;-46
2021/10/26 06:14:53;;;;;;;6.77;5.20;;;9.40;99.90;;;;;;5078190;22;20517;-49
2021/10/26 06:17:19;;;;;;;10.10;6.50;;;9.40;99.90;;;;;;5074079;28;20435;-45
2021/10/26 06:19:53;;;;;;;8.60;6.00;;;9.40;99.90;;;;;;5064885;22;21055;-45
2021/10/26 06:22:20;;;;;;;12.50;7.27;;;9.50;99.90;;;;;;5021149;28;20465;-45
2021/10/26 06:24:48;;;;;;;8.30;5.20;;;9.50;99.90;;;;;;5038993;22;20509;-45
2021/10/26 06:27:14;;;;;;;7.87;6.10;;;9.50;99.90;;;;;;5078930;28;20446;-46
2021/10/26 06:29:41;;;;;;;8.87;6.67;;;9.50;99.90;;;;;;5066116;22;20497;-46
2021/10/26 06:32:09;;;;;;;9.50;7.03;;;9.50;99.90;;;;;;5059106;28;20518;-47
2021/10/26 06:34:36;;;;;;;8.97;6.70;;;9.60;99.90;;;;;;5039316;28;20460;-47
2021/10/26 06:37:03;;;;;;;8.73;5.20;;;9.60;99.90;;;;;;5055525;22;20519;-46
2021/10/26 06:39:38;;;;;;;9.03;5.87;;;9.60;99.90;;;;;;5078791;22;20568;-43
2021/10/26 06:42:05;;;;;;;10.90;6.73;;;9.70;99.90;;;;;;5066104;28;20470;-46
2021/10/26 06:44:32;;;;;;;8.60;6.40;;;9.70;99.90;;;;;;5064846;28;20446;-46
2021/10/26 06:47:02;;;;;;;11.50;6.60;;;9.70;99.90;;;;;;5072031;22;20499;-44
2021/10/26 06:49:30;;;;;;;10.33;7.07;;;9.70;99.90;;;;;;5065418;28;20501;-44
2021/10/26 06:51:57;;;;;;;9.80;6.97;;;9.80;99.90;;;;;;5072066;22;20494;-42
2021/10/26 06:54:24;;;;;;;8.97;5.83;;;9.80;99.90;;;;;;5063493;28;20471;-43
2021/10/26 06:56:51;;;;;;;7.27;6.53;;;9.80;99.90;;;;;;5071605;22;20486;-41
2021/10/26 06:59:17;;;;;;;11.80;6.80;;;9.90;99.90;;;;;;5064414;28;20789;-47
2021/10/26 07:01:44;;;;;;;16.70;6.73;;;9.90;99.90;;;;;;5081517;22;20490;-44
2021/10/26 07:04:11;;;;;;;7.93;5.73;;;9.90;99.90;;;;;;5091476;28;20594;-46
2021/10/26 07:06:39;;;;;;;8.50;5.90;;;9.90;99.90;;;;;;5089239;28;20506;-42
2021/10/26 07:09:06;;;;;;;14.07;7.80;;;9.90;99.90;;;;;;5079219;28;20881;-47
2021/10/26 07:11:32;;;;;;;9.30;6.17;;;10.00;99.90;;;;;;5085679;22;20463;-52
2021/10/26 07:14:08;;;;;;;13.40;7.83;;;10.10;99.90;;;;;;5066983;22;20492;-43
2021/10/26 07:16:36;;;;;;;18.50;7.67;;;10.20;99.90;;;;;;5041084;28;20460;-41
2021/10/26 07:19:02;;;;;;;9.73;6.00;;;10.30;99.90;;;;;;5039796;28;20436;-42
2021/10/26 07:21:29;;;;;;;12.87;6.20;;;10.40;99.90;;;;;;5040318;28;20509;-45
2021/10/26 07:23:57;;;;;;;19.50;10.87;;;10.40;99.90;;;;;;5040134;28;20444;-44
2021/10/26 07:26:24;;;;;;;13.70;10.70;;;10.40;99.90;;;;;;5039952;28;20539;-44
2021/10/26 07:28:54;;;;;;;15.90;6.53;;;10.40;99.90;;;;;;5037592;28;20495;-46
2021/10/26 07:31:23;;;;;;;11.93;6.57;;;10.50;99.90;;;;;;5046906;28;21063;-46
2021/10/26 07:33:50;;;;;;;9.33;7.23;;;10.50;99.90;;;;;;5057156;28;21319;-42
2021/10/26 07:36:18;;;;;;;11.40;6.80;;;10.60;99.90;;;;;;5058881;28;20428;-42
2021/10/26 07:38:45;;;;;;;10.30;6.93;;;10.60;99.90;;;;;;5068594;22;20549;-43
2021/10/26 07:41:13;;;;;;;12.10;7.07;;;10.70;99.90;;;;;;5062882;28;20481;-42
2021/10/26 07:43:40;;;;;;;10.07;6.87;;;10.80;99.90;;;;;;5072648;22;20478;-42
2021/10/26 07:46:07;;;;;;;19.60;9.70;;;10.90;99.90;;;;;;5079834;28;20466;-42
2021/10/26 07:48:34;;;;;;;11.83;7.80;;;10.90;99.90;;;;;;5085318;22;20487;-43
2021/10/26 07:51:02;;;;;;;13.40;8.33;;;11.00;99.90;;;;;;5062117;28;20474;-44
2021/10/26 07:53:30;;;;;;;12.87;7.67;;;11.10;99.90;;;;;;5061465;28;20856;-45
2021/10/26 07:55:58;;;;;;;20.83;7.30;;;11.10;99.90;;;;;;5067873;22;20499;-46
2021/10/26 07:58:26;;;;;;;9.63;7.20;;;11.20;99.90;;;;;;5058902;28;20760;-44
2021/10/26 08:00:53;;;;;;;13.20;7.43;;;11.30;99.90;;;;;;5059087;28;20546;-44
2021/10/26 08:03:21;;;;;;;14.90;7.50;;;11.30;99.90;;;;;;5058827;28;20483;-43
2021/10/26 08:05:48;;;;;;;13.53;8.47;;;11.40;99.90;;;;;;5057981;28;20489;-43
2021/10/26 08:08:17;;;;;;;12.17;6.97;;;11.50;99.90;;;;;;5062593;28;20466;-45
2021/10/26 08:10:44;;;;;;;12.93;7.77;;;11.50;99.90;;;;;;5058772;28;20455;-41
2021/10/26 08:13:11;;;;;;;12.10;6.77;;;11.60;99.90;;;;;;5058618;28;20486;-44
2021/10/26 08:15:39;;;;;;;11.47;6.67;;;11.60;99.90;;;;;;5059506;28;20788;-45
2021/10/26 08:18:06;;;;;;;8.17;5.67;;;11.70;99.90;;;;;;5058232;28;20505;-44
2021/10/26 08:20:32;;;;;;;8.13;5.70;;;11.70;99.90;;;;;;5066337;22;20463;-46
2021/10/26 08:22:59;;;;;;;12.67;7.60;;;11.70;99.90;;;;;;5059892;28;20431;-45
2021/10/26 08:27:56;;;;;;;9.20;6.60;;;11.90;99.90;;;;;;5067767;22;20483;-42
2021/10/26 08:30:30;;;;;;;11.03;7.00;;;12.00;99.90;;;;;;5060185;28;20491;-45
2021/10/26 08:33:02;;;;;;;19.30;7.20;;;12.20;99.90;;;;;;5065465;22;20567;-42
2021/10/26 08:35:29;;;;;;;10.80;6.90;;;12.30;99.90;;;;;;5058155;28;20447;-44
2021/10/26 08:38:01;;;;;;;11.50;7.33;;;12.30;99.90;;;;;;5083017;22;20490;-44
2021/10/26 08:40:31;;;;;;;17.70;8.30;;;12.40;99.90;;;;;;5077664;28;20430;-45
2021/10/26 08:43:02;;;;;;;11.00;6.80;;;12.40;99.90;;;;;;5070101;22;20499;-42
2021/10/26 08:45:31;;;;;;;9.80;6.70;;;12.30;99.90;;;;;;5058100;28;20514;-45
2021/10/26 08:48:00;;;;;;;12.27;7.57;;;12.30;99.90;;;;;;5065204;22;20491;-45
2021/10/26 08:50:32;;;;;;;14.23;8.03;;;12.30;99.90;;;;;;5057835;28;20498;-42
2021/10/26 08:52:59;;;;;;;10.97;7.37;;;12.30;99.90;;;;;;5072775;22;20483;-46
2021/10/26 08:55:26;;;;;;;13.90;7.37;;;12.30;99.90;;;;;;5057389;28;20450;-43
2021/10/26 08:57:55;;;;;;;16.20;8.47;;;12.30;99.90;;;;;;5066791;22;20922;-44
2021/10/26 09:00:23;;;;;;;11.27;7.87;;;12.30;99.90;;;;;;5057394;28;20477;-46
2021/10/26 09:02:52;;;;;;;14.00;7.73;;;12.30;99.90;;;;;;5057249;28;20455;-48
2021/10/26 09:05:22;;;;;;;13.73;8.57;;;12.30;99.90;;;;;;5061117;28;20463;-49
2021/10/26 09:08:07;;;;;;;13.87;8.47;;;12.30;99.90;;;;;;5076536;28;20432;-46
2021/10/26 09:10:35;;;;;;;12.23;8.47;;;12.40;99.90;;;;;;5076175;28;20479;-46
2021/10/26 09:18:42;;;;;;;9.90;6.63;;;12.40;99.90;;;;;;5038176;28;20835;-47
2021/10/26 09:21:31;;;;;;;10.23;7.60;;;12.40;99.90;;;;;;5038378;28;20530;-46
2021/10/26 09:24:00;;;;;;;15.97;8.17;;;12.40;99.90;;;;;;5039065;28;20428;-47
2021/10/26 09:26:42;;;;;;;11.80;7.43;;;12.50;99.90;;;;;;5039531;28;20797;-48
2021/10/26 09:29:11;;;;;;;12.30;7.63;;;12.50;99.90;;;;;;5064712;22;22507;-45
2021/10/26 09:31:39;;;;;;;12.13;8.50;;;12.50;99.90;;;;;;5057891;28;20514;-47
2021/10/26 09:34:08;;;;;;;14.00;8.90;;;12.60;99.90;;;;;;5057383;28;20458;-48
2021/10/26 09:36:39;;;;;;;12.80;7.20;;;12.70;99.90;;;;;;5057549;28;20991;-47
2021/10/26 09:39:13;;;;;;;12.30;7.30;;;12.70;99.90;;;;;;5057759;28;20475;-49
2021/10/26 09:42:06;;;;;;;12.77;7.07;;;12.90;99.90;;;;;;5057509;28;21054;-44
2021/10/26 09:44:39;;;;;;;13.57;8.30;;;12.90;99.90;;;;;;5057784;28;20469;-45
2021/10/26 09:47:08;;;;;;;12.30;7.60;;;12.90;99.90;;;;;;5057452;28;20427;-50
2021/10/26 09:49:38;;;;;;;11.73;6.80;;;13.00;99.90;;;;;;5057882;28;20479;-49
2021/10/26 09:52:15;;;;;;;13.07;6.30;;;13.00;99.90;;;;;;5059486;28;20444;-50
2021/10/26 09:54:42;;;;;;;14.10;8.70;;;13.10;99.90;;;;;;5057738;28;20475;-48
2021/10/26 09:57:11;;;;;;;13.23;7.70;;;13.20;99.90;;;;;;5057134;28;20462;-47
2021/10/26 09:59:45;;;;;;;11.67;7.03;;;13.40;99.90;;;;;;5057228;28;20443;-46
2021/10/26 10:02:17;;;;;;;13.93;6.57;;;13.60;99.90;;;;;;5057089;28;20566;-45
2021/10/26 10:04:44;;;;;;;18.07;6.50;;;13.90;99.90;;;;;;5057201;28;20471;-50
2021/10/26 10:07:10;;;;;;;8.50;5.67;;;14.10;99.90;;;;;;5056705;28;20553;-45
2021/10/26 10:09:38;;;;;;;8.47;6.10;;;14.30;99.90;;;;;;5056895;28;21002;-46
2021/10/26 10:12:07;;;;;;;14.20;6.97;;;14.40;99.90;;;;;;5056952;28;20475;-51
2021/10/26 10:14:34;;;;;;;9.63;5.13;;;14.50;99.90;;;;;;5056895;28;20450;-47
2021/10/26 10:17:03;;;;;;;19.00;6.30;;;14.60;99.90;;;;;;5056851;28;20447;-46
2021/10/26 10:19:31;;;;;;;13.43;5.40;;;14.60;99.90;;;;;;5057155;28;20883;-44
2021/10/26 10:21:58;;;;;;;9.07;6.17;;;14.70;99.90;;;;;;5061035;22;20561;-48
2021/10/26 10:24:28;;;;;;;8.47;5.40;;;14.80;99.90;;;;;;5057489;28;20494;-48
2021/10/26 10:26:56;;;;;;;11.83;6.27;;;14.90;99.90;;;;;;5067110;22;20523;-47
2021/10/26 10:29:24;;;;;;;5.53;4.37;;;15.00;99.90;;;;;;5058387;28;20578;-47
2021/10/26 10:31:51;;;;;;;6.70;4.67;;;15.00;99.90;;;;;;5064909;22;20479;-50
2021/10/26 10:34:19;;;;;;;12.57;6.30;;;14.90;99.90;;;;;;5056307;28;20495;-42
2021/10/26 10:36:47;;;;;;;22.17;5.53;;;14.80;99.90;;;;;;5065297;22;20451;-43
2021/10/26 10:39:18;;;;;;;12.77;6.00;;;14.90;99.90;;;;;;5091329;28;20427;-44
2021/10/26 10:44:38;;;;;;;8.73;4.53;;;15.00;99.90;;;;;;5113156;22;20494;-51
2021/10/26 10:47:10;;;;;;;9.53;6.10;;;14.90;99.90;;;;;;5086604;22;20201;-44
2021/10/26 10:49:48;;;;;;;8.77;4.73;;;14.70;99.90;;;;;;5038386;28;20489;-50
2021/10/26 10:52:21;;;;;;;12.83;4.30;;;14.70;99.90;;;;;;5064077;22;20464;-42
2021/10/26 10:54:53;;;;;;;9.40;5.63;;;14.60;99.90;;;;;;5076899;28;20471;-47
2021/10/26 10:59:53;;;;;;;9.33;4.97;;;14.50;99.90;;;;;;5116724;22;20487;-47
2021/10/26 11:02:24;;;;;;;10.47;5.23;;;14.50;99.90;;;;;;5078781;28;20467;-48
2021/10/26 11:04:57;;;;;;;11.30;5.53;;;14.60;99.90;;;;;;5086534;22;20637;-47
2021/10/26 11:10:19;;;;;;;11.70;5.63;;;14.80;99.90;;;;;;5084292;22;20521;-43
2021/10/26 11:12:46;;;;;;;9.70;5.17;;;14.80;99.90;;;;;;5078741;28;20443;-44
2021/10/26 11:15:20;;;;;;;10.70;6.07;;;14.90;99.90;;;;;;5069168;22;20490;-48
2021/10/26 11:17:57;;;;;;;13.40;9.27;;;14.80;99.90;;;;;;5057959;28;20444;-48
2021/10/26 11:20:41;;;;;;;8.90;4.93;;;14.90;99.90;;;;;;5066173;22;20495;-48
2021/10/26 11:23:10;;;;;;;12.73;6.90;;;14.90;99.90;;;;;;5057515;28;20500;-45
2021/10/26 11:25:41;;;;;;;10.37;5.70;;;15.00;99.90;;;;;;5099169;22;20503;-47
2021/10/26 11:31:23;;;;;;;8.17;4.60;;;15.00;99.90;;;;;;5086257;22;20550;-46
2021/10/26 11:36:17;;;;;;;8.83;5.40;;;15.10;99.90;;;;;;5079994;22;20483;-44
2021/10/26 11:38:48;;;;;;;9.57;5.90;;;15.20;99.90;;;;;;5078419;28;20181;-51
2021/10/26 11:41:17;;;;;;;14.50;5.77;;;15.10;99.90;;;;;;5083396;22;20488;-53
2021/10/26 11:43:46;;;;;;;9.13;5.77;;;15.00;99.90;;;;;;5045511;28;20428;-46
2021/10/26 11:46:16;;;;;;;11.60;5.83;;;15.10;99.90;;;;;;5082137;22;20491;-48
2021/10/26 11:48:45;;;;;;;9.03;5.80;;;15.10;99.90;;;;;;5061865;28;20443;-46
2021/10/26 11:51:20;;;;;;;9.10;5.70;;;15.00;99.90;;;;;;5061720;28;20475;-46
2021/10/26 11:53:47;;;;;;;11.13;6.30;;;15.10;99.90;;;;;;5062080;28;20478;-46
2021/10/26 11:56:26;;;;;;;7.90;5.43;;;15.20;99.90;;;;;;5061170;28;20516;-53
2021/10/26 11:59:01;;;;;;;8.10;5.50;;;15.30;99.90;;;;;;5061442;28;20798;-45
2021/10/26 12:01:45;;;;;;;11.17;6.60;;;15.40;99.90;;;;;;5062939;28;20469;-46
2021/10/26 12:04:18;;;;;;;11.47;7.03;;;15.50;99.90;;;;;;5062029;28;20506;-49
2021/10/26 12:06:46;;;;;;;11.13;6.47;;;15.40;99.90;;;;;;5062699;28;20439;-45
2021/10/26 12:09:14;;;;;;;15.13;6.93;;;15.40;99.90;;;;;;5063005;28;20455;-46
2021/10/26 12:11:49;;;;;;;10.07;5.80;;;15.30;99.90;;;;;;5078612;22;20489;-41
2021/10/26 12:14:27;;;;;;;11.00;7.07;;;15.20;99.90;;;;;;5062038;28;20423;-46
2021/10/26 12:17:15;;;;;;;9.80;5.30;;;15.20;99.90;;;;;;5061821;28;20471;-45
2021/10/26 12:19:46;;;;;;;11.83;6.40;;;15.10;99.90;;;;;;5062805;28;20446;-47
2021/10/26 12:22:15;;;;;;;9.00;6.07;;;15.10;99.90;;;;;;5068860;22;20490;-48
2021/10/26 12:24:47;;;;;;;10.77;5.97;;;15.00;99.90;;;;;;5061574;28;20440;-45
2021/10/26 12:27:14;;;;;;;8.27;5.60;;;15.00;99.90;;;;;;5061219;28;20502;-48
2021/10/26 12:29:43;;;;;;;8.00;6.00;;;14.90;99.90;;;;;;5063938;28;20565;-50
2021/10/26 12:32:11;;;;;;;11.70;5.40;;;14.90;99.90;;;;;;5059214;28;20574;-48
2021/10/26 12:34:41;;;;;;;7.33;5.57;;;14.90;99.90;;;;;;5059354;28;20444;-46
2021/10/26 12:37:33;;;;;;;7.40;5.07;;;15.00;99.90;;;;;;5058510;28;20462;-48
2021/10/26 12:40:01;;;;;;;8.77;6.03;;;15.00;99.90;;;;;;5038214;28;20478;-51
2021/10/26 12:42:37;;;;;;;8.10;4.90;;;15.00;99.90;;;;;;5058525;28;20447;-45
2021/10/26 12:45:06;;;;;;;11.77;6.23;;;15.00;99.90;;;;;;5066422;22;20486;-49
2021/10/26 12:47:53;;;;;;;10.30;6.77;;;15.00;99.90;;;;;;5053142;28;20461;-44
2021/10/26 12:50:30;;;;;;;7.93;5.20;;;15.00;99.90;;;;;;5044223;28;20549;-43
2021/10/26 12:53:21;;;;;;;10.03;7.03;;;15.00;99.90;;;;;;5058647;28;20779;-44
2021/10/26 12:55:50;;;;;;;9.70;6.90;;;14.90;99.90;;;;;;5041736;28;20841;-46
2021/10/26 12:58:48;;;;;;;9.57;5.13;;;14.90;99.90;;;;;;5058773;28;20517;-48
2021/10/26 13:01:25;;;;;;;14.63;7.40;;;15.00;99.90;;;;;;5043555;28;20467;-48
2021/10/26 13:04:07;;;;;;;11.67;6.00;;;15.10;99.90;;;;;;5039902;28;20939;-46
2021/10/26 13:06:36;;;;;;;13.63;8.40;;;15.10;99.90;;;;;;5040546;28;20948;-51
2021/10/26 13:09:06;;;;;;;9.80;5.57;;;15.20;99.90;;;;;;5046156;22;20488;-49
2021/10/26 13:11:34;;;;;;;8.00;5.10;;;15.30;99.90;;;;;;5057184;28;20467;-46
2021/10/26 13:16:34;;;;;;;11.97;6.23;;;15.30;99.90;;;;;;5082153;22;20489;-51
2021/10/26 13:21:50;;;;;;;11.03;5.60;;;15.30;99.90;;;;;;5065075;22;20475;-48
2021/10/26 13:24:18;;;;;;;9.93;5.87;;;15.20;99.90;;;;;;5056328;28;20471;-54
2021/10/26 13:26:45;;;;;;;9.33;5.93;;;15.20;99.90;;;;;;5082624;22;20981;-51
2021/10/26 13:29:13;;;;;;;10.30;6.73;;;15.00;99.90;;;;;;5077470;28;20494;-48
2021/10/26 13:31:40;;;;;;;13.03;5.57;;;15.00;99.90;;;;;;5081150;22;20492;-47
2021/10/26 13:34:08;;;;;;;7.13;5.73;;;14.90;99.90;;;;;;5078301;28;20507;-52
2021/10/26 13:36:36;;;;;;;10.50;6.33;;;14.90;99.90;;;;;;5070249;22;21064;-48